Bend, OR (97701)

8:03 PM PDT on May 28, 2015 (GMT -0700)
Near The River | | Change Station
CLOSE
Current Station
Personal Weather Station
Location: Bend, OR
Elevation: 3533 ft
Nearby Weather Stations

Elev 3533 ft 44.09 °N, 121.31 °W | Updated 3 minutes ago

Clear
Clear
70.7 °F
Feels Like 72 °F
N
0.0
Wind Variable Wind from SSE
Gusts 0.0 mph

Today
High -- | Low -- °F
--% Chance of Precip.
Yesterday
High -- | Low -- °F
Precip. -- in
5:27 AM 8:37 PM
Waxing Gibbous, 80% visible
Pressure 30.04 in
Visibility 10.0 miles
Clouds Clear
Heat Index 72 °F
Dew Point 32 °F
Humidity 9%
Rainfall 0.00 in
Snow Depth Not available.
UV 0 out of 12
Pollen 7.30 out of 12
Air Quality Not available.
Flu Activity No Activity
METAR KBDN 290255Z AUTO 36004KT 10SM CLR 24/04 A3004 RMK AO2

More Conditions Fewer Conditions

Pressure 30.04 in
Visibility 10.0 miles
Clouds Clear
Heat Index 72 °F
Dew Point 32 °F
Humidity 9%
Rainfall 0.00 in
Snow Depth Not available.
UV 0 out of 12
Pollen 7.30 out of 12
Air Quality Not available.
Flu Activity No Activity
METAR KBDN 290255Z AUTO 36004KT 10SM CLR 24/04 A3004 RMK AO2

More Conditions Fewer Conditions

10-Day Weather Forecast

Almanac

Astronomy

May. 28, 2015 Rise Set
Actual Time
Civil Twilight
Nautical Twilight
Astronomical Twilight
Moon
Length of Visible Light
Length of Day
Tomorrow will be .
, % of the Moon is Illuminated

Today's Extremes

State Highs State Lows

Community

WunderPhotos

Upload Photos

1,825,149 photos uploaded!

WunderBlogs® & News

Nearby

Air Quality

  Air Quality AQ Index Pollutant
Not available.

Snow Depth

Station Depth Elevation

Earthquake Activity

City Distance Mag. Time & Date
Minimum magnitude displayed is 2.5.

Coastal Water Temperatures

Place Temperature

Stations

Nearby Weather Stations

Station Location Temp. Windchill Dew Point Humidity Wind Precip. Elev Updated Type